Time;durP1;ratioP1;P1;durP2;ratioP2;P2;SDS_P1;SDS_P2;PMS_P1;PMS_P2;Temp;Humidity;BMP_temperature;BMP_pressure;BME280_temperature;BME280_humidity;BME280_pressure;Samples;Min_cycle;Max_cycle;Signal;HPM_P1;HPM_P2
2022/07/09 00:02:09;;;;;;;;;;;19.40;99.90;;;;;;5095113;28;19912;-78
2022/07/09 00:04:34;;;;;;;;;;;19.40;99.90;;;;;;5095838;28;19915;-78
2022/07/09 00:07:00;;;;;;;;;;;19.40;99.90;;;;;;5095545;28;19930;-79
2022/07/09 00:09:26;;;;;;;;;;;19.50;99.90;;;;;;5077339;28;20348;-78
2022/07/09 00:11:52;;;;;;;;;;;19.50;99.90;;;;;;5095435;28;20399;-78
2022/07/09 00:14:18;;;;;;;;;;;19.40;99.90;;;;;;5095738;28;19960;-77
2022/07/09 00:16:44;;;;;;;;;;;19.40;99.90;;;;;;5077756;28;19995;-78
2022/07/09 00:19:10;;;;;;;;;;;19.30;99.90;;;;;;5095293;28;19908;-78
2022/07/09 00:21:35;;;;;;;;;;;19.30;99.90;;;;;;5095137;28;20002;-79
2022/07/09 00:24:01;;;;;;;;;;;19.30;99.90;;;;;;5095575;28;19908;-78
2022/07/09 00:26:26;;;;;;;;;;;19.20;99.90;;;;;;5095269;28;19995;-77
2022/07/09 00:28:52;;;;;;;;;;;19.20;99.90;;;;;;5095251;28;19909;-78
2022/07/09 00:31:17;;;;;;;;;;;19.20;99.90;;;;;;5076864;28;19915;-78
2022/07/09 00:33:43;;;;;;;;;;;19.10;99.90;;;;;;5094967;28;19947;-78
2022/07/09 00:36:09;;;;;;;;;;;19.10;99.90;;;;;;5095409;28;19908;-79
2022/07/09 00:38:34;;;;;;;;;;;19.20;99.90;;;;;;5095227;28;19950;-78
2022/07/09 00:41:01;;;;;;;;;;;19.10;99.90;;;;;;5094242;28;20391;-77
2022/07/09 00:43:26;;;;;;;;;;;19.00;99.90;;;;;;5094405;28;20348;-78
2022/07/09 00:45:52;;;;;;;;;;;19.00;99.90;;;;;;5094713;28;19951;-77
2022/07/09 00:48:19;;;;;;;;;;;19.00;99.90;;;;;;5094652;28;19908;-77
2022/07/09 00:50:45;;;;;;;;;;;19.00;99.90;;;;;;5094616;28;20020;-78
2022/07/09 00:53:15;;;;;;;;;;;18.90;99.90;;;;;;5094721;28;19961;-79
2022/07/09 00:55:41;;;;;;;;;;;18.90;99.90;;;;;;5076347;28;19908;-78
2022/07/09 00:58:07;;;;;;;;;;;18.80;99.90;;;;;;5094534;28;19960;-78
2022/07/09 01:00:33;;;;;;;;;;;18.80;99.90;;;;;;5094485;28;19912;-77
2022/07/09 01:02:59;;;;;;;;;;;18.80;99.90;;;;;;5094479;28;20368;-78
2022/07/09 01:05:25;;;;;;;;;;;18.80;99.90;;;;;;5094387;28;19915;-78
2022/07/09 01:07:50;;;;;;;;;;;18.80;99.90;;;;;;5094314;28;19965;-78
2022/07/09 01:10:16;;;;;;;;;;;18.70;99.90;;;;;;5094221;28;20407;-78
2022/07/09 01:12:42;;;;;;;;;;;18.70;99.90;;;;;;5094255;28;19908;-78
2022/07/09 01:15:08;;;;;;;;;;;18.70;99.90;;;;;;5094245;28;19939;-77
2022/07/09 01:17:37;;;;;;;;;;;18.60;99.90;;;;;;5094629;28;20291;-76
2022/07/09 01:20:02;;;;;;;;;;;18.70;99.90;;;;;;5094324;28;19909;-79
2022/07/09 01:22:28;;;;;;;;;;;18.60;99.90;;;;;;5094088;28;19962;-77
2022/07/09 01:24:54;;;;;;;;;;;18.60;99.90;;;;;;5094069;28;19958;-77
2022/07/09 01:27:20;;;;;;;;;;;18.60;99.90;;;;;;5093880;28;19991;-78
2022/07/09 01:29:49;;;;;;;;;;;18.60;99.90;;;;;;5094443;28;19959;-78
2022/07/09 01:32:16;;;;;;;;;;;18.60;99.90;;;;;;5093935;28;19909;-78
2022/07/09 01:34:41;;;;;;;;;;;18.60;99.90;;;;;;5093942;28;19986;-78
2022/07/09 01:37:07;;;;;;;;;;;18.60;99.90;;;;;;5093910;28;19981;-77
2022/07/09 01:39:33;;;;;;;;;;;18.60;99.90;;;;;;5094013;28;19999;-78
2022/07/09 01:41:58;;;;;;;;;;;18.60;99.90;;;;;;5093298;28;20057;-76
2022/07/09 01:44:24;;;;;;;;;;;18.50;99.90;;;;;;5075724;28;19908;-78
2022/07/09 01:46:50;;;;;;;;;;;18.50;99.90;;;;;;5093727;28;19991;-78
2022/07/09 01:49:15;;;;;;;;;;;18.40;99.90;;;;;;5093768;28;19915;-78
2022/07/09 01:51:41;;;;;;;;;;;18.30;99.90;;;;;;5093701;28;19915;-79
2022/07/09 01:54:07;;;;;;;;;;;18.30;99.90;;;;;;5093458;28;20283;-77
2022/07/09 01:56:34;;;;;;;;;;;18.20;99.90;;;;;;5093717;28;19908;-78
2022/07/09 01:59:00;;;;;;;;;;;18.10;99.90;;;;;;5093843;28;19908;-78
2022/07/09 02:01:26;;;;;;;;;;;18.10;99.90;;;;;;5093588;28;20333;-78
2022/07/09 02:03:52;;;;;;;;;;;18.10;99.90;;;;;;5075539;28;20009;-77
2022/07/09 02:06:17;;;;;;;;;;;18.20;99.90;;;;;;5093578;28;19950;-78
2022/07/09 02:08:43;;;;;;;;;;;18.20;99.90;;;;;;5094016;28;19912;-77
2022/07/09 02:11:08;;;;;;;;;;;18.10;99.90;;;;;;5093570;28;19908;-78
2022/07/09 02:13:35;;;;;;;;;;;18.00;99.90;;;;;;5075440;28;19908;-79
2022/07/09 02:16:01;;;;;;;;;;;17.80;99.90;;;;;;5093519;28;20029;-78
2022/07/09 02:18:27;;;;;;;;;;;17.80;99.90;;;;;;5094252;28;19915;-77
2022/07/09 02:20:55;;;;;;;;;;;17.90;99.90;;;;;;5093450;28;19909;-78
2022/07/09 02:23:21;;;;;;;;;;;17.90;99.90;;;;;;5075344;28;19908;-78
2022/07/09 02:25:47;;;;;;;;;;;17.80;99.90;;;;;;5093465;28;19908;-77
2022/07/09 02:28:12;;;;;;;;;;;17.70;99.90;;;;;;5093418;28;20003;-78
2022/07/09 02:30:38;;;;;;;;;;;17.50;99.90;;;;;;5093535;28;19908;-76
2022/07/09 02:33:04;;;;;;;;;;;17.50;99.90;;;;;;5093581;28;19912;-78
2022/07/09 02:35:30;;;;;;;;;;;17.50;99.90;;;;;;5093420;28;20291;-77
2022/07/09 02:37:55;;;;;;;;;;;17.60;99.90;;;;;;5093360;28;19954;-78
2022/07/09 02:40:21;;;;;;;;;;;17.70;99.90;;;;;;5093114;28;19916;-79
2022/07/09 02:42:46;;;;;;;;;;;17.80;99.90;;;;;;5093388;28;19920;-78
2022/07/09 02:45:12;;;;;;;;;;;17.80;99.90;;;;;;5093203;28;19915;-77
2022/07/09 02:47:37;;;;;;;;;;;17.80;99.90;;;;;;5093324;28;20305;-78
2022/07/09 02:50:03;;;;;;;;;;;17.70;99.90;;;;;;5093183;28;19912;-77
2022/07/09 02:52:29;;;;;;;;;;;17.50;99.90;;;;;;5093126;28;19909;-78
2022/07/09 02:54:54;;;;;;;;;;;17.50;99.90;;;;;;5093106;28;19999;-77
2022/07/09 02:57:20;;;;;;;;;;;17.60;99.90;;;;;;5093157;28;19908;-78
2022/07/09 02:59:45;;;;;;;;;;;17.60;99.90;;;;;;5093159;28;20271;-77
2022/07/09 03:02:11;;;;;;;;;;;17.60;99.90;;;;;;5093065;28;19912;-78
2022/07/09 03:04:37;;;;;;;;;;;17.60;99.90;;;;;;5093463;28;20330;-76
2022/07/09 03:07:02;;;;;;;;;;;17.60;99.90;;;;;;5096946;28;19915;-78
2022/07/09 03:09:28;;;;;;;;;;;17.70;99.90;;;;;;5096753;28;20380;-78
2022/07/09 03:11:54;;;;;;;;;;;17.70;99.90;;;;;;5096576;28;19919;-78
2022/07/09 03:14:20;;;;;;;;;;;17.70;99.90;;;;;;5096549;28;19908;-79
2022/07/09 03:16:45;;;;;;;;;;;17.60;99.90;;;;;;5097291;28;19908;-78
2022/07/09 03:19:11;;;;;;;;;;;17.50;99.90;;;;;;5096683;28;19909;-78
2022/07/09 03:21:36;;;;;;;;;;;17.50;99.90;;;;;;5096409;28;19956;-78
2022/07/09 03:24:02;;;;;;;;;;;17.50;99.90;;;;;;5096389;28;19966;-78
2022/07/09 03:26:28;;;;;;;;;;;17.50;99.90;;;;;;5096480;28;19908;-77
2022/07/09 03:28:53;;;;;;;;;;;17.40;99.90;;;;;;5096587;28;20299;-78
2022/07/09 03:31:19;;;;;;;;;;;17.40;99.90;;;;;;5096399;28;19915;-77
2022/07/09 03:33:44;;;;;;;;;;;17.30;99.90;;;;;;5096134;28;19955;-77
2022/07/09 03:36:10;;;;;;;;;;;17.30;99.90;;;;;;5096127;28;19916;-77
2022/07/09 03:38:35;;;;;;;;;;;17.30;99.90;;;;;;5096232;28;19994;-76
2022/07/09 03:41:01;;;;;;;;;;;17.30;99.90;;;;;;5095977;28;19916;-78
2022/07/09 03:43:27;;;;;;;;;;;17.20;99.90;;;;;;5096084;28;19908;-77
2022/07/09 03:45:54;;;;;;;;;;;17.20;99.90;;;;;;5095922;28;20423;-78
2022/07/09 03:48:19;;;;;;;;;;;17.10;99.90;;;;;;5095964;28;19939;-77
2022/07/09 03:50:45;;;;;;;;;;;17.20;99.90;;;;;;5095991;28;20320;-78
2022/07/09 03:53:10;;;;;;;;;;;17.30;99.90;;;;;;5096017;28;19915;-77
2022/07/09 03:55:36;;;;;;;;;;;17.30;99.90;;;;;;5095959;28;19908;-77
2022/07/09 03:58:02;;;;;;;;;;;17.30;99.90;;;;;;5095706;28;19957;-78
2022/07/09 04:00:28;;;;;;;;;;;17.30;99.90;;;;;;5095852;28;20306;-78
2022/07/09 04:02:54;;;;;;;;;;;17.20;99.90;;;;;;5095859;28;19916;-77
2022/07/09 04:05:19;;;;;;;;;;;17.10;99.90;;;;;;5095718;28;19914;-76
2022/07/09 04:07:45;;;;;;;;;;;17.00;99.90;;;;;;5095546;28;19915;-78
2022/07/09 04:10:10;;;;;;;;;;;16.90;99.90;;;;;;5095446;28;20006;-77
2022/07/09 04:12:36;;;;;;;;;;;16.90;99.90;;;;;;5095642;28;19968;-79
2022/07/09 04:15:02;;;;;;;;;;;17.00;99.90;;;;;;5095644;28;20359;-78
2022/07/09 04:17:27;;;;;;;;;;;16.90;99.90;;;;;;5095815;28;19908;-78
2022/07/09 04:19:53;;;;;;;;;;;16.90;99.90;;;;;;5095313;28;20009;-78
2022/07/09 04:22:19;;;;;;;;;;;16.90;99.90;;;;;;5095100;28;19919;-77
2022/07/09 04:24:44;;;;;;;;;;;16.80;99.90;;;;;;5095117;28;19908;-78
2022/07/09 04:27:10;;;;;;;;;;;16.80;99.90;;;;;;5095105;28;19935;-76
2022/07/09 04:29:35;;;;;;;;;;;16.80;99.90;;;;;;5095204;28;19909;-78
2022/07/09 04:32:01;;;;;;;;;;;16.80;99.90;;;;;;5095114;28;20261;-78
2022/07/09 04:34:26;;;;;;;;;;;16.80;99.90;;;;;;5094960;28;19908;-77
2022/07/09 04:36:52;;;;;;;;;;;16.80;99.90;;;;;;5094923;28;19995;-77
2022/07/09 04:39:18;;;;;;;;;;;16.80;99.90;;;;;;5094881;28;19908;-78
2022/07/09 04:41:43;;;;;;;;;;;16.70;99.90;;;;;;5094502;28;20023;-79
2022/07/09 04:44:11;;;;;;;;;;;16.70;99.90;;;;;;5076493;28;19908;-78
2022/07/09 04:46:37;;;;;;;;;;;16.60;99.90;;;;;;5094706;28;19934;-78
2022/07/09 04:49:02;;;;;;;;;;;16.50;99.90;;;;;;5094611;28;19998;-78
2022/07/09 04:51:28;;;;;;;;;;;16.40;99.90;;;;;;5094672;28;19908;-77
2022/07/09 04:53:53;;;;;;;;;;;16.40;99.90;;;;;;5094572;28;20024;-77
2022/07/09 04:56:19;;;;;;;;;;;16.30;99.90;;;;;;5094539;28;19908;-78
2022/07/09 04:58:51;;;;;;;;;;;16.30;99.90;;;;;;5094964;28;19908;-78
2022/07/09 05:01:17;;;;;;;;;;;16.60;99.90;;;;;;5094726;28;20019;-77
2022/07/09 05:03:44;;;;;;;;;;;16.70;99.90;;;;;;5094442;28;19914;-77
2022/07/09 05:06:09;;;;;;;;;;;16.70;99.90;;;;;;5076185;28;19961;-78
2022/07/09 05:08:35;;;;;;;;;;;16.80;99.90;;;;;;5094327;28;19912;-78
2022/07/09 05:11:00;;;;;;;;;;;16.90;99.90;;;;;;5094482;28;20287;-78
2022/07/09 05:13:26;;;;;;;;;;;16.90;99.90;;;;;;5076085;28;19912;-77
2022/07/09 05:15:52;;;;;;;;;;;17.00;99.90;;;;;;5094253;28;19942;-79
2022/07/09 05:18:17;;;;;;;;;;;17.10;99.90;;;;;;5094776;28;20265;-78
2022/07/09 05:20:43;;;;;;;;;;;17.10;99.90;;;;;;5094313;28;19915;-77
2022/07/09 05:23:08;;;;;;;;;;;17.20;99.90;;;;;;5094200;28;20024;-78
2022/07/09 05:25:34;;;;;;;;;;;17.20;99.90;;;;;;5094194;28;19912;-78
2022/07/09 05:27:59;;;;;;;;;;;17.30;99.90;;;;;;5093535;28;19908;-77
2022/07/09 05:30:25;;;;;;;;;;;17.30;99.90;;;;;;5094231;28;19915;-78
2022/07/09 05:32:51;;;;;;;;;;;17.30;99.90;;;;;;5094547;28;20348;-78
2022/07/09 05:35:17;;;;;;;;;;;17.30;99.90;;;;;;5094023;28;20334;-78
2022/07/09 05:37:43;;;;;;;;;;;17.30;99.90;;;;;;5093885;28;19908;-78
2022/07/09 05:40:09;;;;;;;;;;;17.30;99.90;;;;;;5093595;28;19969;-77
2022/07/09 05:42:35;;;;;;;;;;;17.30;99.90;;;;;;5094151;28;19920;-79
2022/07/09 05:45:01;;;;;;;;;;;17.40;99.90;;;;;;5094093;28;20326;-78
2022/07/09 05:47:27;;;;;;;;;;;17.50;99.90;;;;;;5093908;28;19915;-78
2022/07/09 05:49:52;;;;;;;;;;;17.60;99.90;;;;;;5093802;28;19908;-78
2022/07/09 05:52:18;;;;;;;;;;;17.80;99.90;;;;;;5093722;28;19915;-79
2022/07/09 05:54:44;;;;;;;;;;;17.90;99.90;;;;;;5094053;28;20403;-78
2022/07/09 05:57:09;;;;;;;;;;;18.10;99.90;;;;;;5093697;28;20376;-78
2022/07/09 05:59:36;;;;;;;;;;;18.20;99.90;;;;;;5093717;28;19915;-78
2022/07/09 06:02:02;;;;;;;;;;;18.30;99.90;;;;;;5093582;28;20283;-79
2022/07/09 06:04:28;;;;;;;;;;;18.30;99.90;;;;;;5093732;28;20395;-78
2022/07/09 06:06:54;;;;;;;;;;;18.40;99.90;;;;;;5093667;28;19912;-79
2022/07/09 06:09:19;;;;;;;;;;;18.50;99.90;;;;;;5075342;28;19908;-79
2022/07/09 06:11:45;;;;;;;;;;;18.50;99.90;;;;;;5093572;28;19915;-77
2022/07/09 06:14:11;;;;;;;;;;;18.70;99.90;;;;;;5093520;28;20314;-79
2022/07/09 06:16:36;;;;;;;;;;;18.70;99.90;;;;;;5093648;28;19915;-78
2022/07/09 06:19:02;;;;;;;;;;;18.80;99.90;;;;;;5094173;28;19916;-79
2022/07/09 06:21:28;;;;;;;;;;;18.90;99.90;;;;;;5093409;28;19923;-79
2022/07/09 06:23:53;;;;;;;;;;;18.90;99.90;;;;;;5093411;28;20383;-78
2022/07/09 06:26:19;;;;;;;;;;;19.10;99.90;;;;;;5093370;28;19951;-78
2022/07/09 06:28:46;;;;;;;;;;;19.10;99.90;;;;;;5093363;28;19908;-79
2022/07/09 06:31:12;;;;;;;;;;;19.10;99.90;;;;;;5075232;28;19915;-79
2022/07/09 06:33:37;;;;;;;;;;;19.20;99.90;;;;;;5093341;28;19912;-78
2022/07/09 06:36:03;;;;;;;;;;;19.20;99.90;;;;;;5093294;28;19915;-78
2022/07/09 06:38:29;;;;;;;;;;;19.40;99.90;;;;;;5093695;28;20329;-78
2022/07/09 06:40:56;;;;;;;;;;;19.50;99.90;;;;;;5095333;28;20372;-79
2022/07/09 06:43:21;;;;;;;;;;;19.70;99.90;;;;;;5097107;28;19916;-80
2022/07/09 06:45:47;;;;;;;;;;;19.80;99.90;;;;;;5096997;28;19909;-78
2022/07/09 06:48:13;;;;;;;;;;;19.90;99.90;;;;;;5096902;28;19996;-78
2022/07/09 06:50:38;;;;;;;;;;;20.00;99.90;;;;;;5097324;28;19947;-78
2022/07/09 06:53:04;;;;;;;;;;;20.10;99.90;;;;;;5096889;28;20334;-79
2022/07/09 06:55:30;;;;;;;;;;;20.20;99.90;;;;;;5096795;28;19923;-79
2022/07/09 06:57:57;;;;;;;;;;;20.30;99.90;;;;;;5096791;28;19908;-78
2022/07/09 07:00:23;;;;;;;;;;;20.40;99.90;;;;;;5060473;28;20289;-79
2022/07/09 07:02:49;;;;;;;;;;;20.40;99.90;;;;;;5055756;28;19917;-78
2022/07/09 07:05:15;;;;;;;;;;;20.60;99.90;;;;;;5056098;28;19916;-79
2022/07/09 07:07:41;;;;;;;;;;;20.80;99.90;;;;;;5056018;28;19909;-78
2022/07/09 07:10:08;;;;;;;;;;;20.80;99.90;;;;;;5054344;28;19931;-78
2022/07/09 07:12:34;;;;;;;;;;;20.90;99.90;;;;;;5055973;28;20492;-79
2022/07/09 07:15:00;;;;;;;;;;;21.10;99.90;;;;;;5055890;28;20016;-79
2022/07/09 07:17:25;;;;;;;;;;;21.30;99.90;;;;;;5056542;28;19908;-79
2022/07/09 07:19:51;;;;;;;;;;;21.30;99.90;;;;;;5055546;28;19955;-79
2022/07/09 07:22:16;;;;;;;;;;;21.40;99.90;;;;;;5055915;28;19913;-78
2022/07/09 07:24:42;;;;;;;;;;;21.40;99.90;;;;;;5055738;28;20362;-79
2022/07/09 07:27:08;;;;;;;;;;;21.40;99.90;;;;;;5055733;28;19994;-78
2022/07/09 07:29:34;;;;;;;;;;;21.80;99.90;;;;;;5054403;28;19943;-78
2022/07/09 07:31:59;;;;;;;;;;;21.90;99.90;;;;;;5037365;28;19909;-80
2022/07/09 07:34:25;;;;;;;;;;;21.90;99.90;;;;;;5035347;28;20377;-79
2022/07/09 07:36:51;;;;;;;;;;;22.10;99.90;;;;;;5035553;28;20441;-77
2022/07/09 07:39:17;;;;;;;;;;;22.30;99.90;;;;;;5035518;28;19963;-79
2022/07/09 07:41:43;;;;;;;;;;;22.50;99.90;;;;;;5080838;28;19924;-79
2022/07/09 07:44:08;;;;;;;;;;;22.80;99.90;;;;;;5095674;28;19909;-80
2022/07/09 07:46:34;;;;;;;;;;;24.90;99.90;;;;;;5095611;28;19943;-79
2022/07/09 07:48:59;;;;;;;;;;;27.80;99.90;;;;;;5095567;28;19908;-78
2022/07/09 07:51:25;;;;;;;;;;;30.30;99.90;;;;;;5094620;28;19908;-78
2022/07/09 07:53:50;;;;;;;;;;;31.50;91.40;;;;;;5095708;28;19994;-79
2022/07/09 07:56:16;;;;;;;;;;;32.70;88.60;;;;;;5095443;28;20295;-80
2022/07/09 07:58:42;;;;;;;;;;;33.80;87.90;;;;;;5095432;28;19914;-79
2022/07/09 08:01:08;;;;;;;;;;;34.10;84.10;;;;;;5086548;28;19913;-80
2022/07/09 08:03:33;;;;;;;;;;;34.70;81.30;;;;;;5066112;28;19916;-80
2022/07/09 08:05:59;;;;;;;;;;;34.80;75.50;;;;;;5073120;28;20381;-79
2022/07/09 08:08:25;;;;;;;;;;;34.40;75.40;;;;;;5075111;28;19913;-80
2022/07/09 08:10:51;;;;;;;;;;;34.70;75.00;;;;;;5074468;28;20065;-80
2022/07/09 08:13:17;;;;;;;;;;;34.20;72.90;;;;;;5078878;28;20497;-81
2022/07/09 08:15:42;;;;;;;;;;;34.20;74.10;;;;;;5094813;28;19908;-81
2022/07/09 08:18:11;;;;;;;;;;;34.40;75.20;;;;;;5095634;28;19915;-80
2022/07/09 08:20:38;;;;;;;;;;;34.50;76.70;;;;;;5094430;28;20299;-79
2022/07/09 08:23:03;;;;;;;;;;;34.20;73.70;;;;;;5094589;28;20307;-81
2022/07/09 08:25:29;;;;;;;;;;;33.50;74.10;;;;;;5094984;28;19908;-79
2022/07/09 08:27:54;;;;;;;;;;;33.20;74.30;;;;;;5094474;28;19908;-81
2022/07/09 08:30:20;;;;;;;;;;;32.20;75.30;;;;;;5090569;28;19909;-80
2022/07/09 08:32:46;;;;;;;;;;;31.40;78.40;;;;;;5059856;28;19909;-81
2022/07/09 08:35:11;;;;;;;;;;;32.10;80.00;;;;;;5074449;28;19908;-80
2022/07/09 08:37:37;;;;;;;;;;;31.50;78.50;;;;;;5074404;28;19909;-80
2022/07/09 08:40:03;;;;;;;;;;;32.10;81.60;;;;;;5073891;28;19954;-81
2022/07/09 08:42:28;;;;;;;;;;;32.30;79.00;;;;;;5073663;28;19920;-78
2022/07/09 08:44:54;;;;;;;;;;;32.60;80.20;;;;;;5056247;28;20392;-80
2022/07/09 08:47:20;;;;;;;;;;;32.70;76.90;;;;;;5074073;28;19909;-80
2022/07/09 08:49:46;;;;;;;;;;;32.70;76.30;;;;;;5074143;28;19909;-80
2022/07/09 08:52:12;;;;;;;;;;;32.20;78.00;;;;;;5073645;28;19931;-79
2022/07/09 08:54:39;;;;;;;;;;;32.20;76.80;;;;;;5073992;28;20385;-80
2022/07/09 08:57:05;;;;;;;;;;;32.60;77.70;;;;;;5074108;28;20394;-81
2022/07/09 08:59:30;;;;;;;;;;;33.00;76.20;;;;;;5073973;28;19908;-80
2022/07/09 09:01:56;;;;;;;;;;;33.30;76.60;;;;;;5087954;28;19912;-79
2022/07/09 09:04:23;;;;;;;;;;;33.30;74.60;;;;;;5093343;28;19908;-81
2022/07/09 09:06:48;;;;;;;;;;;33.00;73.30;;;;;;5094013;28;19957;-81
2022/07/09 09:09:17;;;;;;;;;;;32.80;75.00;;;;;;5094135;28;19916;-81
2022/07/09 09:11:46;;;;;;;;;;;33.00;74.90;;;;;;5093617;28;20000;-81
2022/07/09 09:14:17;;;;;;;;;;;32.60;75.10;;;;;;5094071;28;20383;-79
2022/07/09 09:16:43;;;;;;;;;;;33.00;74.60;;;;;;5093644;28;19930;-80
2022/07/09 09:19:08;;;;;;;;;;;33.00;72.00;;;;;;5094524;28;20455;-79
2022/07/09 09:21:36;;;;;;;;;;;33.40;72.20;;;;;;5093285;28;19966;-79
2022/07/09 09:24:02;;;;;;;;;;;33.90;71.10;;;;;;5093852;28;19939;-80
2022/07/09 09:26:28;;;;;;;;;;;34.20;70.00;;;;;;5093799;28;19915;-78
2022/07/09 09:28:59;;;;;;;;;;;33.80;68.20;;;;;;5093721;28;19912;-79
2022/07/09 09:31:29;;;;;;;;;;;33.80;68.50;;;;;;5093159;28;19919;-78
2022/07/09 09:33:56;;;;;;;;;;;34.00;68.50;;;;;;5093636;28;19994;-79
2022/07/09 09:36:42;;;;;;;;;;;34.20;67.30;;;;;;5093703;28;19915;-79
2022/07/09 09:39:16;;;;;;;;;;;34.20;67.00;;;;;;5093551;28;20453;-81
2022/07/09 09:41:49;;;;;;;;;;;34.10;66.50;;;;;;5092868;28;20014;-79
2022/07/09 09:44:16;;;;;;;;;;;33.50;66.50;;;;;;5093623;28;19912;-80
2022/07/09 09:46:42;;;;;;;;;;;33.80;67.50;;;;;;5093457;28;19908;-79
2022/07/09 09:49:08;;;;;;;;;;;33.90;68.00;;;;;;5093483;28;19908;-80
2022/07/09 09:51:38;;;;;;;;;;;34.40;66.70;;;;;;5092947;28;20398;-80
2022/07/09 09:54:04;;;;;;;;;;;34.70;66.90;;;;;;5093368;28;19964;-80
2022/07/09 09:56:30;;;;;;;;;;;34.60;65.80;;;;;;5093397;28;20288;-80
2022/07/09 09:58:57;;;;;;;;;;;35.20;65.50;;;;;;5093382;28;19915;-80
2022/07/09 10:01:23;;;;;;;;;;;35.70;65.00;;;;;;5093659;28;19934;-79
2022/07/09 10:03:49;;;;;;;;;;;36.10;63.60;;;;;;5093729;28;19912;-81
2022/07/09 10:06:15;;;;;;;;;;;36.40;62.80;;;;;;5075944;28;19908;-78
2022/07/09 10:08:41;;;;;;;;;;;36.40;61.60;;;;;;5093657;28;19999;-80
2022/07/09 10:11:06;;;;;;;;;;;36.40;61.50;;;;;;5093516;28;19954;-79
2022/07/09 10:13:32;;;;;;;;;;;36.80;60.90;;;;;;5093889;28;19909;-80
2022/07/09 10:15:59;;;;;;;;;;;36.00;60.60;;;;;;5079574;28;19915;-79
2022/07/09 10:18:24;;;;;;;;;;;35.50;61.50;;;;;;5098527;28;19912;-79
2022/07/09 10:20:54;;;;;;;;;;;35.40;62.30;;;;;;5097720;28;19973;-80
2022/07/09 10:23:22;;;;;;;;;;;36.40;60.60;;;;;;5097649;28;19912;-79
2022/07/09 10:25:47;;;;;;;;;;;36.90;59.10;;;;;;5079375;28;19908;-81
2022/07/09 10:28:17;;;;;;;;;;;37.20;59.20;;;;;;5097668;28;19908;-80
2022/07/09 10:30:42;;;;;;;;;;;37.00;58.30;;;;;;5097428;28;19908;-80
2022/07/09 10:33:10;;;;;;;;;;;37.70;58.10;;;;;;5097445;28;19908;-80
2022/07/09 10:35:57;;;;;;;;;;;37.80;58.70;;;;;;5097348;28;19915;-80
2022/07/09 10:38:33;;;;;;;;;;;37.20;58.10;;;;;;5097511;28;19950;-80
2022/07/09 10:40:59;;;;;;;;;;;37.50;58.10;;;;;;5097092;28;19916;-80
2022/07/09 10:43:43;;;;;;;;;;;37.30;55.90;;;;;;5097102;28;20011;-80
2022/07/09 10:46:11;;;;;;;;;;;37.30;56.50;;;;;;5097393;28;19908;-81
2022/07/09 10:48:37;;;;;;;;;;;38.40;56.50;;;;;;5078766;28;19908;-81
2022/07/09 10:51:02;;;;;;;;;;;39.00;55.10;;;;;;5097084;28;19909;-81
2022/07/09 10:53:29;;;;;;;;;;;38.20;54.70;;;;;;5097331;28;20399;-79
2022/07/09 10:55:55;;;;;;;;;;;38.20;54.90;;;;;;5097053;28;19912;-81
2022/07/09 10:58:21;;;;;;;;;;;38.70;54.30;;;;;;5096950;28;19908;-79
2022/07/09 11:00:57;;;;;;;;;;;39.00;54.00;;;;;;5096837;28;19908;-81
2022/07/09 11:03:26;;;;;;;;;;;39.30;54.20;;;;;;5096758;28;20031;-80
2022/07/09 11:05:52;;;;;;;;;;;38.50;53.40;;;;;;5096761;28;19956;-77
2022/07/09 11:08:17;;;;;;;;;;;39.40;53.10;;;;;;5096762;28;20319;-77
2022/07/09 11:10:43;;;;;;;;;;;39.70;53.20;;;;;;5096649;28;19994;-77
2022/07/09 11:13:09;;;;;;;;;;;39.70;53.30;;;;;;5078443;28;20049;-79
2022/07/09 11:15:35;;;;;;;;;;;39.90;53.30;;;;;;5096561;28;20007;-77
2022/07/09 11:18:05;;;;;;;;;;;39.70;52.90;;;;;;5096982;28;20432;-78
2022/07/09 11:20:31;;;;;;;;;;;40.00;52.70;;;;;;5096385;28;19908;-77
2022/07/09 11:22:59;;;;;;;;;;;40.10;52.00;;;;;;5096394;28;20306;-79
2022/07/09 11:25:25;;;;;;;;;;;39.90;52.10;;;;;;5095620;28;20008;-78
2022/07/09 11:27:51;;;;;;;;;;;40.20;52.80;;;;;;5096233;28;20009;-79
2022/07/09 11:30:17;;;;;;;;;;;39.70;52.60;;;;;;5096300;28;19922;-78
2022/07/09 11:32:43;;;;;;;;;;;39.60;53.00;;;;;;5096356;28;19958;-77
2022/07/09 11:35:08;;;;;;;;;;;40.40;52.50;;;;;;5096346;28;19908;-79
2022/07/09 11:37:34;;;;;;;;;;;40.30;51.50;;;;;;5096113;28;20006;-77
2022/07/09 11:40:00;;;;;;;;;;;40.20;51.50;;;;;;5095900;28;19908;-79
2022/07/09 11:42:25;;;;;;;;;;;40.60;51.40;;;;;;5096016;28;20035;-79
2022/07/09 11:45:00;;;;;;;;;;;40.50;51.20;;;;;;5096455;28;19908;-77
2022/07/09 11:47:33;;;;;;;;;;;40.70;50.90;;;;;;5096101;28;20368;-78
2022/07/09 11:50:09;;;;;;;;;;;40.20;50.80;;;;;;5096057;28;19953;-79
2022/07/09 11:52:34;;;;;;;;;;;40.30;50.80;;;;;;5077735;28;19999;-77
2022/07/09 11:55:04;;;;;;;;;;;40.10;50.60;;;;;;5096075;28;19951;-79
2022/07/09 11:57:31;;;;;;;;;;;40.60;50.30;;;;;;5095809;28;19908;-77
2022/07/09 11:59:56;;;;;;;;;;;40.50;50.00;;;;;;5077580;28;20292;-78
2022/07/09 12:02:23;;;;;;;;;;;40.60;50.40;;;;;;5095638;28;19912;-78
2022/07/09 12:04:48;;;;;;;;;;;41.50;50.50;;;;;;5095996;28;19908;-78
2022/07/09 12:07:14;;;;;;;;;;;41.10;50.40;;;;;;5095796;28;19919;-79
2022/07/09 12:09:39;;;;;;;;;;;41.60;50.50;;;;;;5095533;28;19983;-78
2022/07/09 12:12:05;;;;;;;;;;;40.80;49.50;;;;;;5095594;28;20364;-79
2022/07/09 12:14:31;;;;;;;;;;;40.80;50.90;;;;;;5095471;28;19930;-77
2022/07/09 12:16:57;;;;;;;;;;;41.80;49.80;;;;;;5095639;28;20328;-78
2022/07/09 12:19:22;;;;;;;;;;;41.30;48.50;;;;;;5095867;28;19908;-78
2022/07/09 12:21:48;;;;;;;;;;;41.10;49.30;;;;;;5095497;28;19912;-79
2022/07/09 12:24:14;;;;;;;;;;;41.30;49.30;;;;;;5095297;28;19918;-79
2022/07/09 12:26:39;;;;;;;;;;;41.00;48.50;;;;;;5095246;28;19953;-81
2022/07/09 12:29:05;;;;;;;;;;;40.40;48.40;;;;;;5095185;28;19908;-81
2022/07/09 12:31:32;;;;;;;;;;;40.30;49.10;;;;;;5095152;28;20300;-81
2022/07/09 12:33:58;;;;;;;;;;;40.70;49.70;;;;;;5095096;28;19915;-81
2022/07/09 12:36:23;;;;;;;;;;;41.00;49.40;;;;;;5095315;28;19908;-80
2022/07/09 12:38:49;;;;;;;;;;;41.70;48.90;;;;;;5076778;28;19912;-80
2022/07/09 12:41:14;;;;;;;;;;;42.20;48.90;;;;;;5094700;28;19965;-77
2022/07/09 12:43:40;;;;;;;;;;;42.00;48.60;;;;;;5094923;28;20395;-78
2022/07/09 12:46:06;;;;;;;;;;;41.70;48.30;;;;;;5095298;28;20068;-78
2022/07/09 12:48:32;;;;;;;;;;;42.00;48.40;;;;;;5094837;28;19908;-81
2022/07/09 12:50:57;;;;;;;;;;;42.70;47.90;;;;;;5094841;28;19908;-78
2022/07/09 12:53:23;;;;;;;;;;;42.20;47.50;;;;;;5094670;28;20376;-79
2022/07/09 12:55:48;;;;;;;;;;;42.00;47.70;;;;;;5094748;28;19908;-78
2022/07/09 12:58:14;;;;;;;;;;;41.50;45.80;;;;;;5094790;28;19912;-79
2022/07/09 13:00:39;;;;;;;;;;;40.70;45.70;;;;;;5094589;28;19912;-78
2022/07/09 13:03:05;;;;;;;;;;;41.50;44.90;;;;;;5094471;28;20406;-79
2022/07/09 13:05:31;;;;;;;;;;;41.90;44.00;;;;;;5094550;28;20300;-78
2022/07/09 13:07:57;;;;;;;;;;;42.20;43.40;;;;;;5094663;28;19937;-78
2022/07/09 13:10:23;;;;;;;;;;;42.10;42.80;;;;;;5094674;28;19908;-79
2022/07/09 13:12:49;;;;;;;;;;;41.90;42.00;;;;;;5094375;28;19908;-78
2022/07/09 13:15:20;;;;;;;;;;;41.50;42.00;;;;;;5094323;28;19912;-79
2022/07/09 13:17:49;;;;;;;;;;;41.90;41.80;;;;;;5075849;28;20394;-78
2022/07/09 13:20:15;;;;;;;;;;;42.20;41.80;;;;;;5076675;28;19912;-77
2022/07/09 13:22:40;;;;;;;;;;;42.10;42.20;;;;;;5094345;28;19912;-77
2022/07/09 13:25:06;;;;;;;;;;;42.00;42.30;;;;;;5094245;28;20279;-78
2022/07/09 13:27:32;;;;;;;;;;;41.50;42.20;;;;;;5094354;28;19908;-79
2022/07/09 13:29:57;;;;;;;;;;;41.30;42.20;;;;;;5094153;28;19952;-79
2022/07/09 13:32:23;;;;;;;;;;;41.30;42.70;;;;;;5094095;28;20018;-81
2022/07/09 13:34:51;;;;;;;;;;;41.40;42.90;;;;;;5094056;28;19973;-78
2022/07/09 13:37:17;;;;;;;;;;;41.30;42.40;;;;;;5094197;28;20378;-80
2022/07/09 13:39:43;;;;;;;;;;;41.00;41.50;;;;;;5094091;28;19954;-80
2022/07/09 13:42:08;;;;;;;;;;;41.30;41.70;;;;;;5093457;28;20380;-79
2022/07/09 13:44:34;;;;;;;;;;;41.90;40.40;;;;;;5093919;28;19912;-78
2022/07/09 13:47:00;;;;;;;;;;;42.10;40.40;;;;;;5075616;28;19908;-78
2022/07/09 13:49:26;;;;;;;;;;;41.30;40.10;;;;;;5093529;28;19915;-78
2022/07/09 13:51:51;;;;;;;;;;;40.80;40.40;;;;;;5093946;28;19970;-78
2022/07/09 13:54:17;;;;;;;;;;;41.50;40.90;;;;;;5093908;28;20299;-79
2022/07/09 13:56:42;;;;;;;;;;;41.80;41.30;;;;;;5093779;28;19950;-78
2022/07/09 13:59:08;;;;;;;;;;;41.20;40.90;;;;;;5093941;28;19947;-79
2022/07/09 14:01:34;;;;;;;;;;;41.40;41.40;;;;;;5093773;28;19916;-78
2022/07/09 14:03:59;;;;;;;;;;;42.20;41.20;;;;;;5093803;28;19908;-78
2022/07/09 14:06:25;;;;;;;;;;;41.80;40.10;;;;;;5093782;28;19965;-78
2022/07/09 14:08:51;;;;;;;;;;;41.30;39.70;;;;;;5093635;28;19915;-78
2022/07/09 14:11:17;;;;;;;;;;;40.50;41.60;;;;;;5093652;28;19908;-79